Time;durP1;ratioP1;P1;durP2;ratioP2;P2;SDS_P1;SDS_P2;PMS_P1;PMS_P2;Temp;Humidity;BMP_temperature;BMP_pressure;BME280_temperature;BME280_humidity;BME280_pressure;Samples;Min_cycle;Max_cycle;Signal;HPM_P1;HPM_P2
2022/10/14 05:08:28;;;;;;;;;2.00;2.00;;;;;17.09;74.48;101169.75;2817251;23;46521;-81
2022/10/14 05:09:39;;;;;;;;;0.50;0.50;;;;;17.05;74.43;101160.22;2385210;28;46188;-81
2022/10/14 05:10:49;;;;;;;;;1.50;1.50;;;;;17.06;74.51;101161.94;2386533;28;45389;-82
2022/10/14 05:11:59;;;;;;;;;1.00;1.00;;;;;17.06;74.63;101161.94;2391507;28;45204;-83
2022/10/14 05:13:10;;;;;;;;;2.50;1.50;;;;;17.05;74.39;101160.22;2392132;28;45425;-82
2022/10/14 05:14:21;;;;;;;;;1.75;1.75;;;;;17.03;74.42;101156.81;2392415;28;45622;-82
2022/10/14 05:15:32;;;;;;;;;3.00;3.00;;;;;17.05;74.70;101168.19;2392705;28;45664;-82
2022/10/14 05:16:42;;;;;;;;;2.50;1.00;;;;;17.03;74.62;101162.13;2382369;28;47389;-82
2022/10/14 05:17:53;;;;;;;;;2.00;2.00;;;;;17.02;74.72;101160.38;2378167;28;44654;-81
2022/10/14 05:19:03;;;;;;;;;1.25;1.25;;;;;17.02;74.51;101165.69;2386015;28;46210;-81
2022/10/14 05:20:13;;;;;;;;;1.75;1.75;;;;;17.03;74.63;101162.13;2394824;28;45334;-82
2022/10/14 05:21:24;;;;;;;;;2.75;2.00;;;;;17.01;74.42;101163.13;2394518;28;45381;-82
2022/10/14 05:22:34;;;;;;;;;4.00;3.00;;;;;17.01;75.06;101165.78;2394625;28;45234;-82
2022/10/14 05:23:44;;;;;;;;;1.25;1.25;;;;;17.00;74.56;101172.91;2393307;28;46329;-83
2022/10/14 05:24:55;;;;;;;;;1.00;1.00;;;;;16.99;74.48;101168.50;2383675;28;45335;-83
2022/10/14 05:26:05;;;;;;;;;3.00;2.00;;;;;16.98;74.77;101161.50;2379155;28;47403;-83
2022/10/14 05:27:16;;;;;;;;;3.00;3.00;;;;;16.97;74.88;101167.75;2383562;28;45396;-83
2022/10/14 05:28:27;;;;;;;;;2.00;1.00;;;;;16.98;74.53;101170.34;2392021;28;45254;-83
2022/10/14 05:29:37;;;;;;;;;2.75;1.00;;;;;16.97;74.01;101162.44;2390855;28;45271;-83
2022/10/14 05:30:47;;;;;;;;;1.00;1.00;;;;;16.96;74.48;101156.25;2391308;28;46504;-83
2022/10/14 05:31:58;;;;;;;;;2.00;1.00;;;;;16.96;74.79;101155.44;2393578;28;45211;-83
2022/10/14 05:33:09;;;;;;;;;2.00;2.00;;;;;16.97;74.57;101151.81;2382186;28;48270;-83
2022/10/14 05:34:19;;;;;;;;;2.75;1.75;;;;;16.95;74.76;101159.00;2385350;28;44684;-82
2022/10/14 05:35:29;;;;;;;;;2.00;2.00;;;;;16.97;74.91;101157.13;2392983;28;45442;-83
2022/10/14 05:36:40;;;;;;;;;1.25;1.25;;;;;16.95;74.26;101154.56;2393989;28;45417;-83
2022/10/14 05:37:55;;;;;;;;;1.00;1.00;;;;;16.95;74.46;101153.69;2383469;28;47291;-83
2022/10/14 05:39:07;;;;;;;;;2.00;2.00;;;;;16.93;74.31;101156.44;2386802;28;45389;-83
2022/10/14 05:40:17;;;;;;;;;2.00;2.00;;;;;16.92;74.29;101154.72;2391874;28;46540;-83
2022/10/14 05:41:27;;;;;;;;;2.00;2.00;;;;;16.93;74.29;101159.09;2392490;28;44750;-83
2022/10/14 05:42:38;;;;;;;;;3.00;2.00;;;;;16.92;74.53;101146.75;2387857;28;47705;-82
2022/10/14 05:43:49;;;;;;;;;2.00;2.00;;;;;16.92;74.42;101149.41;2389218;28;45586;-82
2022/10/14 05:45:00;;;;;;;;;3.50;2.00;;;;;16.93;74.62;101144.97;2391457;28;45520;-82
2022/10/14 05:46:10;;;;;;;;;2.25;1.25;;;;;16.93;74.61;101145.81;2387659;28;45513;-82
2022/10/14 05:47:21;;;;;;;;;1.00;1.00;;;;;16.91;74.42;101147.72;2385011;28;45248;-82
2022/10/14 05:48:32;;;;;;;;;0.75;0.75;;;;;16.92;74.12;101145.88;2385289;28;45267;-82
2022/10/14 05:49:43;;;;;;;;;2.50;1.75;;;;;16.90;73.98;101148.63;2385026;28;45340;-83
2022/10/14 05:50:53;;;;;;;;;2.50;2.00;;;;;16.90;74.23;101151.28;2385117;28;45395;-82
2022/10/14 05:52:03;;;;;;;;;2.25;1.25;;;;;16.89;74.30;101154.03;2385004;28;46376;-82
2022/10/14 05:53:14;;;;;;;;;2.00;1.00;;;;;16.89;74.66;101156.69;2376966;28;44724;-82
2022/10/14 05:54:24;;;;;;;;;0.00;0.00;;;;;16.91;74.48;101152.16;2385054;28;46330;-82
2022/10/14 05:55:34;;;;;;;;;1.00;1.00;;;;;16.92;74.39;101151.19;2385219;28;44742;-82
2022/10/14 05:56:45;;;;;;;;;2.25;2.00;;;;;16.92;74.87;101154.72;2385405;28;45334;-82
2022/10/14 05:57:56;;;;;;;;;1.25;1.25;;;;;16.94;74.75;101157.31;2385079;28;45461;-82
2022/10/14 05:59:08;;;;;;;;;2.75;2.75;;;;;16.94;74.59;101155.50;2384913;28;46610;-82
2022/10/14 06:00:19;;;;;;;;;4.25;2.00;;;;;16.95;74.51;101159.00;2385227;28;45243;-82
2022/10/14 06:01:32;;;;;;;;;3.25;2.25;;;;;16.94;74.66;101158.13;2384855;28;45259;-82
2022/10/14 06:02:42;;;;;;;;;2.50;2.50;;;;;16.96;74.05;101161.56;2389039;28;44708;-82
2022/10/14 06:03:52;;;;;;;;;2.25;2.25;;;;;16.97;74.38;101163.28;2393839;28;45277;-82
2022/10/14 06:05:03;;;;;;;;;3.00;3.00;;;;;16.96;74.53;101166.03;2393048;28;45420;-82
2022/10/14 06:06:13;;;;;;;;;2.25;2.25;;;;;16.98;74.34;101166.81;2393332;28;45463;-82
2022/10/14 06:07:24;;;;;;;;;3.00;3.00;;;;;16.97;74.33;101167.75;2394138;28;45530;-83
2022/10/14 06:08:34;;;;;;;;;2.50;2.50;;;;;16.96;74.47;101169.53;2393192;28;46151;-82
2022/10/14 06:09:44;;;;;;;;;3.00;3.00;;;;;16.96;74.32;101171.34;2374303;28;45284;-82
2022/10/14 06:10:54;;;;;;;;;3.50;3.50;;;;;16.96;74.31;101171.34;2383441;28;46121;-82
2022/10/14 06:12:05;;;;;;;;;2.50;2.50;;;;;16.95;74.50;101172.28;2394362;28;44861;-83
2022/10/14 06:13:16;;;;;;;;;4.00;4.00;;;;;16.95;74.23;101167.84;2394250;28;45424;-82
2022/10/14 06:14:26;;;;;;;;;5.00;3.00;;;;;16.96;74.27;101171.34;2394269;28;45436;-82
2022/10/14 06:15:36;;;;;;;;;3.75;3.75;;;;;16.97;74.36;101162.44;2394069;28;46269;-82
2022/10/14 06:16:50;;;;;;;;;3.00;3.00;;;;;16.98;74.34;101165.03;2391270;28;45227;-82
2022/10/14 06:18:00;;;;;;;;;3.25;2.00;;;;;16.97;74.28;101160.63;2383599;28;47839;-82
2022/10/14 06:19:10;;;;;;;;;2.00;2.00;;;;;17.00;74.05;101162.28;2382894;28;45366;-83
2022/10/14 06:20:21;;;;;;;;;3.75;3.25;;;;;16.99;74.00;101155.25;2384092;28;48006;-83
2022/10/14 06:21:31;;;;;;;;;2.50;2.50;;;;;17.01;74.34;101160.50;2387123;28;44645;-82
2022/10/14 06:22:41;;;;;;;;;4.00;2.75;;;;;16.99;74.55;101156.09;2394050;28;45242;-83
2022/10/14 06:23:52;;;;;;;;;2.25;2.25;;;;;17.00;74.09;101156.97;2391670;28;44788;-83
2022/10/14 06:25:02;;;;;;;;;4.00;2.75;;;;;17.01;74.26;101155.19;2384843;28;46589;-82
2022/10/14 06:26:13;;;;;;;;;2.00;2.00;;;;;17.01;73.93;101147.22;2393175;28;45306;-82
2022/10/14 06:27:23;;;;;;;;;4.50;3.00;;;;;17.01;74.62;101149.88;2389040;28;45262;-82
2022/10/14 06:28:34;;;;;;;;;2.00;2.00;;;;;16.99;74.11;101150.78;2384878;28;45367;-82
2022/10/14 06:29:44;;;;;;;;;2.00;2.00;;;;;16.99;74.21;101158.75;2384874;28;46341;-83
2022/10/14 06:30:54;;;;;;;;;2.75;2.75;;;;;16.99;74.39;101165.84;2374877;28;45279;-82
2022/10/14 06:32:07;;;;;;;;;4.50;3.25;;;;;17.01;74.26;101166.66;2377996;28;45354;-82
2022/10/14 06:33:18;;;;;;;;;5.00;3.00;;;;;17.01;74.59;101165.78;2382515;28;45549;-83
2022/10/14 06:34:28;;;;;;;;;4.25;3.25;;;;;17.02;74.65;101165.69;2383816;28;46291;-83
2022/10/14 06:35:39;;;;;;;;;2.00;2.00;;;;;17.02;74.59;101165.69;2394035;28;45310;-82
2022/10/14 06:36:49;;;;;;;;;3.75;2.75;;;;;17.04;74.17;101168.28;2388515;28;46247;-83
2022/10/14 06:37:59;;;;;;;;;4.25;3.00;;;;;17.04;74.71;101168.28;2384664;28;44627;-83
2022/10/14 06:39:10;;;;;;;;;5.50;4.00;;;;;17.05;74.22;101168.19;2386069;28;45320;-83
2022/10/14 06:40:20;;;;;;;;;3.00;3.00;;;;;17.04;74.27;101169.13;2386658;28;45169;-83
2022/10/14 06:41:31;;;;;;;;;4.50;3.00;;;;;17.06;74.55;101164.59;2384694;28;46280;-83
2022/10/14 06:42:42;;;;;;;;;2.75;2.75;;;;;17.08;74.21;101167.19;2384708;28;45183;-83
2022/10/14 06:43:52;;;;;;;;;4.00;3.50;;;;;17.08;74.32;101168.03;2390698;28;45707;-83
2022/10/14 06:45:03;;;;;;;;;4.00;2.75;;;;;17.08;74.51;101169.84;2394015;28;45290;-83
2022/10/14 06:46:14;;;;;;;;;4.25;3.00;;;;;17.09;74.20;101164.44;2393879;28;45315;-83
2022/10/14 06:47:24;;;;;;;;;5.75;5.00;;;;;17.13;74.19;101164.28;2394158;28;45414;-83
2022/10/14 06:48:34;;;;;;;;;4.25;4.25;;;;;17.13;74.26;101172.25;2391719;28;45512;-83
2022/10/14 06:49:45;;;;;;;;;2.25;1.00;;;;;17.13;74.15;101164.28;2391381;28;44720;-84
2022/10/14 06:50:58;;;;;;;;;5.00;5.00;;;;;17.14;73.97;101168.63;2392007;28;45402;-83
2022/10/14 06:52:09;;;;;;;;;7.00;4.00;;;;;17.14;74.36;101172.16;2394043;28;45457;-83
2022/10/14 06:53:19;;;;;;;;;3.50;3.50;;;;;17.14;74.10;101176.59;2386243;28;45404;-83
2022/10/14 06:54:30;;;;;;;;;3.00;3.00;;;;;17.14;74.35;101174.81;2384590;28;45198;-83
2022/10/14 06:55:40;;;;;;;;;5.50;4.50;;;;;17.15;74.60;101175.66;2384444;28;45210;-84
2022/10/14 06:56:50;;;;;;;;;4.00;4.00;;;;;17.17;74.06;101181.78;2384790;28;45155;-83
2022/10/14 06:58:01;;;;;;;;;4.50;4.00;;;;;17.17;74.53;101184.44;2384469;28;46066;-83
2022/10/14 06:59:11;;;;;;;;;9.25;5.50;;;;;17.16;73.95;101178.25;2386866;28;45218;-83
2022/10/14 07:00:21;;;;;;;;;6.00;5.00;;;;;17.17;74.40;101174.69;2391461;28;46199;-83
2022/10/14 07:01:32;;;;;;;;;5.75;5.00;;;;;17.20;74.51;101178.97;2388223;28;44759;-83
2022/10/14 07:02:43;;;;;;;;;4.00;3.25;;;;;17.20;74.64;101184.28;2384419;28;45711;-83
2022/10/14 07:03:53;;;;;;;;;4.50;4.50;;;;;17.21;74.51;101183.34;2389019;28;44728;-83
2022/10/14 07:05:04;;;;;;;;;5.50;4.00;;;;;17.22;74.43;101179.72;2393862;28;45390;-83
2022/10/14 07:06:15;;;;;;;;;7.25;4.00;;;;;17.21;74.48;101181.53;2386681;28;45314;-83
2022/10/14 07:07:25;;;;;;;;;4.25;4.25;;;;;17.24;74.40;101183.16;2384377;28;46193;-83
2022/10/14 07:08:35;;;;;;;;;5.75;5.00;;;;;17.22;74.16;101179.72;2384110;28;45242;-83
2022/10/14 07:09:46;;;;;;;;;6.00;6.00;;;;;17.23;74.33;101178.81;2384306;28;45418;-84
2022/10/14 07:10:56;;;;;;;;;5.25;5.25;;;;;17.23;74.17;101189.44;2384518;28;45437;-84
2022/10/14 07:12:06;;;;;;;;;4.50;4.50;;;;;17.24;74.57;101193.78;2384185;28;45692;-83
2022/10/14 07:13:17;;;;;;;;;5.25;4.50;;;;;17.24;74.33;101193.78;2384773;28;45337;-83
2022/10/14 07:14:27;;;;;;;;;5.75;4.50;;;;;17.27;74.63;101200.72;2391507;28;46411;-84
2022/10/14 07:15:38;;;;;;;;;4.50;4.00;;;;;17.27;74.20;101196.28;2389638;28;45175;-83
2022/10/14 07:16:48;;;;;;;;;3.50;3.50;;;;;17.29;74.56;101201.50;2384989;28;45211;-84
2022/10/14 07:17:58;;;;;;;;;3.75;3.75;;;;;17.28;74.54;101197.16;2385083;28;44612;-84
2022/10/14 07:19:09;;;;;;;;;5.00;3.25;;;;;17.31;74.34;101202.28;2384996;28;45243;-84
2022/10/14 07:20:19;;;;;;;;;1.75;1.00;;;;;17.32;74.67;101204.00;2387146;28;45195;-84
2022/10/14 07:21:30;;;;;;;;;5.00;2.00;;;;;17.29;74.02;101202.38;2390765;28;46198;-85
2022/10/14 07:22:40;;;;;;;;;3.00;1.25;;;;;17.28;73.66;101205.13;2386946;28;45207;-84
2022/10/14 07:23:50;;;;;;;;;1.00;1.00;;;;;17.26;73.63;101205.19;2373904;28;47126;-85
2022/10/14 07:25:02;;;;;;;;;1.50;1.50;;;;;17.26;74.18;101204.34;2377204;28;45302;-83
2022/10/14 07:26:12;;;;;;;;;1.00;1.00;;;;;17.25;73.66;101206.13;2384413;28;45540;-85
2022/10/14 07:27:22;;;;;;;;;1.00;1.00;;;;;17.25;73.19;101206.13;2384546;28;45484;-83
2022/10/14 07:28:33;;;;;;;;;1.25;1.25;;;;;17.21;73.54;101205.44;2384256;28;46484;-84
2022/10/14 07:29:43;;;;;;;;;2.50;2.50;;;;;17.18;73.54;101210.06;2374531;28;45307;-84
2022/10/14 07:31:08;;;;;;;;;2.00;0.50;;;;;17.17;73.92;101213.66;2379790;28;45505;-84
2022/10/14 07:32:18;;;;;;;;;2.75;2.00;;;;;17.13;73.94;101204.97;2386229;28;45115;-84
2022/10/14 07:33:29;;;;;;;;;3.00;3.00;;;;;17.12;73.94;101207.69;2384251;28;46585;-85
2022/10/14 07:34:39;;;;;;;;;1.75;1.75;;;;;17.09;73.80;101198.09;2384407;28;44677;-83
2022/10/14 07:35:50;;;;;;;;;3.00;1.50;;;;;17.07;74.08;101211.47;2384338;28;45406;-83
2022/10/14 07:37:00;;;;;;;;;2.00;1.00;;;;;17.08;73.87;101207.88;2384448;28;45174;-84
2022/10/14 07:38:10;;;;;;;;;1.25;1.25;;;;;17.07;74.18;101205.28;2383896;28;45232;-83
2022/10/14 07:39:20;;;;;;;;;2.00;2.00;;;;;17.09;73.83;101208.72;2384368;28;45175;-84
2022/10/14 07:40:31;;;;;;;;;5.00;2.00;;;;;17.07;73.47;101211.47;2391405;28;46445;-84
2022/10/14 07:41:41;;;;;;;;;2.25;1.00;;;;;17.06;73.69;101211.56;2391867;28;44616;-84
2022/10/14 07:42:52;;;;;;;;;1.50;1.50;;;;;17.05;73.15;101223.09;2391892;28;45515;-84
2022/10/14 07:44:07;;;;;;;;;2.25;1.00;;;;;17.05;73.39;101228.41;2393662;28;44606;-86
2022/10/14 07:45:19;;;;;;;;;2.00;1.25;;;;;17.01;73.10;101218.91;2383331;28;47874;-84
2022/10/14 07:46:32;;;;;;;;;2.00;1.00;;;;;16.96;73.71;101227.13;2377136;28;44675;-85
2022/10/14 07:47:45;;;;;;;;;2.50;2.00;;;;;16.95;73.74;101225.38;2384598;28;45533;-84
2022/10/14 07:49:00;;;;;;;;;3.00;1.25;;;;;16.95;73.53;101222.72;2386357;28;45405;-84
2022/10/14 07:50:11;;;;;;;;;4.25;2.50;;;;;16.95;73.70;101230.69;2389318;28;45464;-84
2022/10/14 07:51:22;;;;;;;;;2.00;1.75;;;;;16.95;73.60;101234.22;2393697;28;45167;-84
2022/10/14 07:52:32;;;;;;;;;3.00;2.00;;;;;16.94;73.69;101237.78;2374452;28;47119;-84
2022/10/14 07:53:43;;;;;;;;;1.50;1.50;;;;;16.93;73.84;101240.53;2382045;28;45336;-84
2022/10/14 07:54:53;;;;;;;;;2.75;1.00;;;;;16.93;73.81;101244.06;2391890;28;46433;-84
2022/10/14 07:56:03;;;;;;;;;3.00;1.25;;;;;16.92;73.36;101241.47;2384369;28;45268;-83
2022/10/14 07:57:15;;;;;;;;;3.00;1.00;;;;;16.94;73.70;101236.97;2387286;28;46221;-84
2022/10/14 07:58:28;;;;;;;;;1.75;1.75;;;;;16.95;73.66;101243.97;2389548;28;44789;-84
2022/10/14 07:59:38;;;;;;;;;1.00;1.00;;;;;16.93;73.80;101236.09;2384161;28;46653;-83
2022/10/14 08:00:50;;;;;;;;;1.00;1.00;;;;;16.93;73.27;101240.53;2383442;28;45271;-85
2022/10/14 08:02:00;;;;;;;;;0.00;0.00;;;;;16.94;73.39;101240.44;2376529;28;48480;-86
2022/10/14 08:03:10;;;;;;;;;1.00;1.00;;;;;16.95;73.42;101236.88;2383687;28;44727;-86
2022/10/14 08:04:24;;;;;;;;;1.25;1.00;;;;;16.95;73.89;101236.88;2386010;28;48455;-86
2022/10/14 08:05:34;;;;;;;;;0.50;0.50;;;;;16.97;72.68;101236.78;2380531;28;45374;-85
2022/10/14 08:06:49;;;;;;;;;1.25;1.00;;;;;16.98;73.10;101239.38;2376516;28;46670;-85
2022/10/14 08:07:59;;;;;;;;;1.00;1.00;;;;;17.02;73.22;101245.38;2392259;28;45453;-86
2022/10/14 08:09:11;;;;;;;;;7.50;4.50;;;;;17.04;73.55;101240.81;2377754;28;48466;-86
2022/10/14 08:10:21;;;;;;;;;3.00;1.25;;;;;17.05;72.59;101239.91;2378571;28;44648;-87
2022/10/14 08:11:31;;;;;;;;;3.25;2.50;;;;;17.06;73.08;101240.75;2393381;28;45339;-85
2022/10/14 08:12:42;;;;;;;;;3.00;2.75;;;;;17.06;73.02;101244.25;2393482;28;45239;-86
2022/10/14 08:13:54;;;;;;;;;3.75;3.00;;;;;17.09;73.48;101252.06;2383186;28;47235;-86
2022/10/14 08:15:04;;;;;;;;;7.50;4.00;;;;;17.11;73.53;101246.69;2375716;28;45483;-85
2022/10/14 08:16:16;;;;;;;;;2.75;1.75;;;;;17.15;73.22;101247.38;2378382;28;45352;-86
2022/10/14 08:17:26;;;;;;;;;2.50;1.00;;;;;17.16;72.86;101251.78;2379871;28;45419;-86
2022/10/14 08:18:37;;;;;;;;;1.50;1.50;;;;;17.18;72.96;101249.91;2383183;28;48054;-86
2022/10/14 08:19:49;;;;;;;;;2.00;2.00;;;;;17.18;73.05;101250.78;2382368;28;45303;-86
2022/10/14 08:20:59;;;;;;;;;5.00;4.00;;;;;17.20;73.07;101248.88;2374270;28;47694;-87
2022/10/14 08:22:10;;;;;;;;;2.00;2.00;;;;;17.24;73.26;101248.69;2385835;28;44710;-86
2022/10/14 08:23:20;;;;;;;;;1.00;1.00;;;;;17.26;72.78;101253.00;2382965;28;47040;-86
2022/10/14 08:24:30;;;;;;;;;1.00;1.00;;;;;17.26;72.94;101258.31;2383782;28;45279;-86
2022/10/14 08:25:42;;;;;;;;;1.25;1.25;;;;;17.26;72.77;101253.00;2383970;28;46151;-86
2022/10/14 08:26:55;;;;;;;;;1.50;1.50;;;;;17.27;73.18;101254.72;2384099;28;45409;-86
2022/10/14 08:28:06;;;;;;;;;1.25;0.25;;;;;17.27;72.61;101253.88;2383151;28;47110;-86
2022/10/14 08:29:16;;;;;;;;;3.75;1.25;;;;;17.26;73.37;101255.66;2385753;28;45330;-85
2022/10/14 08:30:27;;;;;;;;;2.00;2.00;;;;;17.27;72.23;101248.56;2392878;28;45366;-86
2022/10/14 08:31:37;;;;;;;;;1.00;1.00;;;;;17.27;72.29;101260.03;2383462;28;45388;-86
2022/10/14 08:32:47;;;;;;;;;2.00;2.00;;;;;17.28;72.84;101251.16;2387153;28;45461;-86
2022/10/14 08:33:58;;;;;;;;;1.50;1.50;;;;;17.28;72.66;101256.44;2395140;28;45196;-86
2022/10/14 08:35:09;;;;;;;;;3.00;1.00;;;;;17.30;72.83;101259.88;2393067;28;46459;-86
2022/10/14 08:36:21;;;;;;;;;1.75;1.75;;;;;17.31;72.79;101250.09;2384517;28;45198;-87
2022/10/14 08:37:31;;;;;;;;;3.00;1.00;;;;;17.31;72.82;101248.31;2375549;28;48051;-87
2022/10/14 08:38:41;;;;;;;;;3.00;2.00;;;;;17.31;72.47;101250.09;2378278;28;45200;-87
2022/10/14 08:39:52;;;;;;;;;1.50;1.00;;;;;17.34;71.68;101260.56;2384358;28;46997;-86
2022/10/14 08:41:02;;;;;;;;;1.00;1.00;;;;;17.36;71.82;101261.34;2384986;28;44718;-87
2022/10/14 08:42:52;;;;;;;;;2.00;1.75;;;;;17.37;72.01;101254.22;2375949;28;46988;-86
2022/10/14 08:44:24;;;;;;;;;1.00;1.00;;;;;17.36;71.94;101257.84;2386713;28;45380;-86
2022/10/14 08:45:45;;;;;;;;;3.25;1.00;;;;;17.34;72.01;101255.25;2390387;28;46685;-86
2022/10/14 08:46:58;;;;;;;;;3.50;0.75;;;;;17.34;72.02;101257.03;2375600;28;45398;-86
2022/10/14 08:48:15;;;;;;;;;1.75;1.75;;;;;17.34;72.18;101249.06;2369331;28;47372;-86
2022/10/14 08:49:29;;;;;;;;;0.75;0.75;;;;;17.35;72.09;101253.47;2391382;28;45366;-86
2022/10/14 08:50:55;;;;;;;;;2.00;2.00;;;;;17.36;72.13;101253.38;2402837;28;45388;-86
2022/10/14 08:52:15;;;;;;;;;2.00;2.00;;;;;17.37;72.31;101247.13;2397756;28;44717;-86
2022/10/14 08:53:34;;;;;;;;;2.00;2.00;;;;;17.40;71.86;101248.75;2376302;28;48182;-86
2022/10/14 08:54:50;;;;;;;;;1.50;1.00;;;;;17.40;71.48;101240.78;2388698;28;45294;-86
2022/10/14 08:56:02;;;;;;;;;1.75;1.75;;;;;17.41;71.68;101239.81;2385452;28;46294;-86
2022/10/14 08:57:18;;;;;;;;;1.00;1.00;;;;;17.44;71.72;101242.31;2375530;28;45318;-86
2022/10/14 08:58:49;;;;;;;;;3.00;1.25;;;;;17.47;72.55;101255.47;2381510;28;45351;-86
2022/10/14 08:59:59;;;;;;;;;2.00;2.00;;;;;17.50;72.35;101247.31;2394967;28;44602;-86
2022/10/14 09:01:30;;;;;;;;;2.00;1.25;;;;;17.52;71.33;101244.56;2394784;28;46250;-86
2022/10/14 09:02:47;;;;;;;;;2.00;1.00;;;;;17.51;71.75;101248.16;2384855;28;45272;-86
2022/10/14 09:04:02;;;;;;;;;0.00;0.00;;;;;17.51;71.34;101251.69;2387229;28;45449;-84
2022/10/14 09:05:15;;;;;;;;;3.25;1.50;;;;;17.48;71.62;101243.88;2379890;28;45269;-84
2022/10/14 09:06:28;;;;;;;;;3.00;2.00;;;;;17.52;71.66;101244.56;2377856;28;47333;-84
2022/10/14 09:07:39;;;;;;;;;1.50;1.50;;;;;17.52;71.66;101241.91;2388034;28;45180;-84
2022/10/14 09:08:53;;;;;;;;;2.00;2.00;;;;;17.55;72.35;101241.75;2375921;28;47677;-84
2022/10/14 09:10:11;;;;;;;;;3.75;2.25;;;;;17.57;72.66;101245.19;2373623;28;45302;-85
2022/10/14 09:11:23;;;;;;;;;2.50;2.50;;;;;17.60;72.47;101247.69;2377138;28;47204;-83
2022/10/14 09:12:35;;;;;;;;;1.00;1.00;;;;;17.62;71.65;101242.28;2378480;28;45350;-85
2022/10/14 09:13:49;;;;;;;;;2.00;2.00;;;;;17.63;72.25;101247.50;2379601;28;45556;-84
2022/10/14 09:15:31;;;;;;;;;3.50;2.00;;;;;17.65;72.34;101242.97;2380494;28;44622;-83
2022/10/14 09:16:44;;;;;;;;;3.00;2.00;;;;;17.69;72.27;101240.97;2384773;28;45189;-85
2022/10/14 09:18:04;;;;;;;;;3.50;3.50;;;;;17.70;71.92;101240.06;2390846;28;45480;-86
2022/10/14 09:19:30;;;;;;;;;2.25;2.00;;;;;17.71;71.38;101239.09;2394641;28;46357;-86
2022/10/14 09:20:41;;;;;;;;;1.00;1.00;;;;;17.71;71.30;101231.13;2384433;28;45295;-86
2022/10/14 09:21:54;;;;;;;;;3.50;2.00;;;;;17.72;72.01;101234.63;2384276;28;47498;-86
2022/10/14 09:23:14;;;;;;;;;2.00;2.00;;;;;17.71;71.11;101227.59;2379444;28;44851;-85
2022/10/14 09:24:30;;;;;;;;;1.00;1.00;;;;;17.72;71.26;101222.22;2379007;28;47253;-86
2022/10/14 09:26:05;;;;;;;;;3.00;1.25;;;;;17.74;71.01;101228.31;2384788;28;45235;-86
2022/10/14 09:27:20;;;;;;;;;3.25;3.25;;;;;17.75;71.57;101216.69;2374360;28;48292;-86
2022/10/14 09:28:37;;;;;;;;;1.50;1.50;;;;;17.77;71.17;101225.47;2386401;28;44723;-86
2022/10/14 09:29:59;;;;;;;;;3.75;3.00;;;;;17.80;70.99;101226.25;2375770;28;47144;-86
2022/10/14 09:31:11;;;;;;;;;4.00;2.25;;;;;17.81;70.93;101227.94;2370221;28;45197;-87
2022/10/14 09:32:29;;;;;;;;;3.00;3.00;;;;;17.82;70.90;101224.34;2378809;28;45804;-86
2022/10/14 09:33:42;;;;;;;;;2.75;2.00;;;;;17.82;70.96;101222.56;2375750;28;45268;-86
2022/10/14 09:34:52;;;;;;;;;3.00;1.75;;;;;17.83;70.77;101226.09;2378175;28;47262;-86
2022/10/14 09:36:03;;;;;;;;;1.75;1.00;;;;;17.84;70.40;101228.63;2371431;28;45336;-86
2022/10/14 09:37:30;;;;;;;;;2.25;2.25;;;;;17.85;70.67;101230.34;2377829;28;47796;-86
2022/10/14 09:38:40;;;;;;;;;4.00;2.75;;;;;17.86;71.28;101225.88;2385446;28;45289;-86
2022/10/14 09:39:53;;;;;;;;;1.50;1.50;;;;;17.86;70.97;101229.41;2375214;28;47110;-86
2022/10/14 09:41:10;;;;;;;;;1.50;1.50;;;;;17.88;70.83;101232.84;2370396;28;45400;-86
2022/10/14 09:42:50;;;;;;;;;3.25;2.00;;;;;17.89;70.96;101228.38;2382228;28;46465;-86
2022/10/14 09:44:21;;;;;;;;;1.50;1.50;;;;;17.91;70.64;101225.63;2376220;28;45235;-87
2022/10/14 09:45:49;;;;;;;;;2.25;2.25;;;;;17.91;70.38;101221.16;2389596;28;45656;-86
2022/10/14 09:47:04;;;;;;;;;4.00;3.00;;;;;17.89;70.57;101223.06;2377842;28;44661;-86
2022/10/14 09:48:36;;;;;;;;;4.50;3.00;;;;;17.91;70.81;101223.81;2387527;28;45408;-86
2022/10/14 09:49:47;;;;;;;;;1.00;1.00;;;;;17.91;70.42;101221.16;2384159;28;45429;-85
2022/10/14 09:51:00;;;;;;;;;3.25;2.00;;;;;17.94;70.65;101221.00;2384511;28;45199;-86
2022/10/14 09:52:26;;;;;;;;;3.50;3.00;;;;;17.95;71.24;101221.88;2385234;28;45175;-87
2022/10/14 09:53:41;;;;;;;;;3.00;2.25;;;;;17.96;71.21;101223.56;2389819;28;46707;-86
2022/10/14 09:54:54;;;;;;;;;2.00;2.00;;;;;17.97;71.01;101220.84;2384447;28;45199;-87
2022/10/14 09:56:07;;;;;;;;;4.00;2.25;;;;;17.97;70.84;101215.53;2387167;28;46574;-86
2022/10/14 09:57:18;;;;;;;;;1.50;1.50;;;;;17.98;70.63;101222.53;2393921;28;45310;-86
2022/10/14 09:58:38;;;;;;;;;2.00;2.00;;;;;17.98;70.61;101233.16;2392704;28;45602;-86
2022/10/14 10:00:00;;;;;;;;;2.75;2.00;;;;;18.00;70.37;101223.28;2384459;28;45433;-87
2022/10/14 10:01:41;;;;;;;;;3.00;3.00;;;;;18.03;70.74;101229.38;2378125;28;46087;-87
2022/10/14 10:02:52;;;;;;;;;4.00;3.25;;;;;18.02;70.73;101222.38;2375072;28;45825;-87
2022/10/14 10:04:30;;;;;;;;;2.75;2.00;;;;;18.03;70.33;101224.94;2383387;28;45456;-86
2022/10/14 10:05:40;;;;;;;;;3.25;3.25;;;;;18.02;70.85;101217.91;2391917;28;45451;-86
2022/10/14 10:06:53;;;;;;;;;4.00;2.00;;;;;18.03;70.51;101216.09;2384050;28;47020;-86
2022/10/14 10:08:12;;;;;;;;;5.50;3.00;;;;;18.06;70.65;101213.25;2377085;28;45372;-86
2022/10/14 10:09:23;;;;;;;;;2.25;2.00;;;;;18.06;70.08;101208.81;2374452;28;47207;-86
2022/10/14 10:10:34;;;;;;;;;2.00;2.00;;;;;18.09;70.28;101210.44;2384922;28;45402;-86
2022/10/14 10:11:44;;;;;;;;;3.00;2.00;;;;;18.11;70.21;101213.84;2378033;28;47153;-86
2022/10/14 10:12:55;;;;;;;;;2.25;2.25;;;;;18.15;70.35;101217.22;2386911;28;45441;-86
2022/10/14 10:14:26;;;;;;;;;3.75;2.75;;;;;18.21;70.45;101217.72;2387726;28;45484;-86
2022/10/14 10:15:36;;;;;;;;;3.75;3.00;;;;;18.22;70.03;101206.13;2376153;28;44749;-86
2022/10/14 10:16:48;;;;;;;;;2.25;2.25;;;;;18.27;69.80;101210.34;2377216;28;47212;-86
2022/10/14 10:17:58;;;;;;;;;4.25;4.25;;;;;18.31;70.51;101214.53;2383993;28;45276;-87
2022/10/14 10:19:23;;;;;;;;;2.75;2.00;;;;;18.35;70.16;101215.22;2372007;28;48047;-86
2022/10/14 10:20:34;;;;;;;;;5.00;5.00;;;;;18.37;69.90;101205.34;2379466;28;44623;-86
2022/10/14 10:21:46;;;;;;;;;2.00;2.00;;;;;18.39;70.18;101214.94;2380896;28;47002;-86
2022/10/14 10:23:17;;;;;;;;;4.75;4.00;;;;;18.41;70.60;101204.19;2388294;28;45328;-86
2022/10/14 10:24:27;;;;;;;;;2.25;2.00;;;;;18.42;69.54;101209.41;2379711;28;46715;-86
2022/10/14 10:25:38;;;;;;;;;4.00;4.00;;;;;18.43;70.13;101207.63;2383468;28;45247;-86
2022/10/14 10:26:49;;;;;;;;;5.00;3.25;;;;;18.48;70.73;101212.66;2378097;28;45254;-86
2022/10/14 10:27:59;;;;;;;;;8.25;5.00;;;;;18.49;70.30;101214.41;2376565;28;45319;-86
2022/10/14 10:29:23;;;;;;;;;3.50;3.50;;;;;18.49;70.39;101214.41;2380066;28;45286;-86
2022/10/14 10:30:46;;;;;;;;;3.00;3.00;;;;;18.49;70.10;101207.28;2384062;28;45251;-86
2022/10/14 10:32:15;;;;;;;;;3.50;3.50;;;;;18.51;70.36;101212.50;2387084;28;48330;-86
2022/10/14 10:33:52;;;;;;;;;6.00;5.00;;;;;18.53;69.77;101210.59;2390293;28;45335;-86
2022/10/14 10:35:10;;;;;;;;;3.50;3.50;;;;;18.56;69.92;101205.09;2390177;28;46374;-85
2022/10/14 10:36:33;;;;;;;;;3.25;2.00;;;;;18.57;69.76;101200.66;2387048;28;45224;-84
2022/10/14 10:38:02;;;;;;;;;3.50;3.00;;;;;18.60;69.74;101193.31;2378714;28;47400;-85
2022/10/14 10:39:20;;;;;;;;;3.00;2.00;;;;;18.62;69.75;101194.06;2385022;28;45168;-84
2022/10/14 10:40:57;;;;;;;;;3.00;3.00;;;;;18.66;69.89;101192.09;2376235;28;47204;-83
2022/10/14 10:42:29;;;;;;;;;2.00;2.00;;;;;18.66;68.67;101195.63;2383652;28;44870;-84
2022/10/14 10:43:53;;;;;;;;;3.00;3.00;;;;;18.68;69.27;101195.53;2383686;28;47608;-84
2022/10/14 10:45:33;;;;;;;;;4.00;3.00;;;;;18.73;68.49;101195.25;2388731;28;45458;-84
2022/10/14 10:46:50;;;;;;;;;3.50;3.00;;;;;18.78;69.92;101202.00;2388210;28;45543;-84
2022/10/14 10:48:19;;;;;;;;;3.75;3.25;;;;;18.81;68.74;101192.13;2374528;28;45301;-84
2022/10/14 10:49:42;;;;;;;;;2.25;2.25;;;;;18.86;68.98;101196.22;2380231;28;46316;-86
2022/10/14 10:51:03;;;;;;;;;4.00;3.00;;;;;18.91;68.95;101187.06;2384784;28;45275;-86